Tom Car — XCAJ3 — position and weather

sailwx.info

Track history (hours):
 
Tides and Currents Weather Stations Pressure Air Temp Water Temp Dewpoint Dewpoint Depression Visibility Wind Speed Wind Dir Waves Ship Positions

Tom Car

Last reported at 2018-Jan-21 16:27 UTC. Time now 2018-Jan-21 16:37 UTC.
Position N 19°12' W 096°08'.

Length 10 m.

Type: Pilot. MMSI: 345030093.

Date/timePositionNaut miles runAvg speedWind from/ knotsBaromVisibWave heightAir tempDewpointWater temp
2018-Jan-21 16:27N 19°12' W 096°08'0 0.0
2018-Jan-21 16:00N 19°12' W 096°08'0 0.0
2018-Jan-21 15:27N 19°12' W 096°08'0 0.1
2018-Jan-21 15:00N 19°12' W 096°08'0 0.5
2018-Jan-21 14:28N 19°12' W 096°08'0 0.0
2018-Jan-21 13:58N 19°12' W 096°08'0 0.0
2018-Jan-21 13:28N 19°12' W 096°08'0 0.0
2018-Jan-21 12:58N 19°12' W 096°08'0 0.0
2018-Jan-21 12:28N 19°12' W 096°08'0 0.0
2018-Jan-21 11:58N 19°12' W 096°08'0 0.0
2018-Jan-21 11:28N 19°12' W 096°08'0 0.0
2018-Jan-21 10:58N 19°12' W 096°08'0 0.0
2018-Jan-21 10:28N 19°12' W 096°08'0 0.0
2018-Jan-21 09:55N 19°12' W 096°08'0 0.0
2018-Jan-21 09:28N 19°12' W 096°08'0 0.0
2018-Jan-21 08:55N 19°12' W 096°08'0 0.0
2018-Jan-21 08:28N 19°12' W 096°08'0 0.0
2018-Jan-21 07:58N 19°12' W 096°08'0 0.0
2018-Jan-21 07:28N 19°12' W 096°08'0 0.0
2018-Jan-21 06:58N 19°12' W 096°08'0 0.0
2018-Jan-21 06:28N 19°12' W 096°08'0 0.0
2018-Jan-21 05:58N 19°12' W 096°08'0 0.0
2018-Jan-21 05:28N 19°12' W 096°08'0 0.0
2018-Jan-21 04:58N 19°12' W 096°08'0 0.0
2018-Jan-21 04:28N 19°12' W 096°08'0 0.0
2018-Jan-21 03:58N 19°12' W 096°08'0 0.0
2018-Jan-21 03:28N 19°12' W 096°08'0 0.0
2018-Jan-21 02:58N 19°12' W 096°08'0 0.0
2018-Jan-21 02:28N 19°12' W 096°08'0 0.0
2018-Jan-21 01:58N 19°12' W 096°08'0 0.0
2018-Jan-21 01:28N 19°12' W 096°08'0 0.0
2018-Jan-21 00:58N 19°12' W 096°08'0 0.0
2018-Jan-21 00:28N 19°12' W 096°08'0 0.0
2018-Jan-20 23:58N 19°12' W 096°08'0 0.0
2018-Jan-20 23:28N 19°12' W 096°08'0 0.0
2018-Jan-20 22:55N 19°12' W 096°08'0 0.0
2018-Jan-20 22:28N 19°12' W 096°08'0 0.4
2018-Jan-20 22:00N 19°12' W 096°08'2 3.3
2018-Jan-20 21:30N 19°12' W 096°06'2 4.0
2018-Jan-20 21:00N 19°13' W 096°08'1 1.4
2018-Jan-20 20:29N 19°12' W 096°08'0 0.0
2018-Jan-20 19:59N 19°12' W 096°08'0 0.0
2018-Jan-20 19:29N 19°12' W 096°08'0 0.0
2018-Jan-20 18:59N 19°12' W 096°08'0 0.0
2018-Jan-20 18:29N 19°12' W 096°08'0 0.0
2018-Jan-20 17:59N 19°12' W 096°08'0 0.0
2018-Jan-20 17:26N 19°12' W 096°08'0 0.0
2018-Jan-20 16:59N 19°12' W 096°08'0 0.0
2018-Jan-20 16:30N 19°12' W 096°08'0 0.6
2018-Jan-20 16:00N 19°12' W 096°08'0 0.0
2018-Jan-20 15:30N 19°12' W 096°08'0 0.0
2018-Jan-20 15:00N 19°12' W 096°08'0 0.0
2018-Jan-20 14:27N 19°12' W 096°08'0 0.0
2018-Jan-20 13:54N 19°12' W 096°08'0 0.0
2018-Jan-20 04:07N 19°12' W 096°08'0 0.0
2018-Jan-20 03:58N 19°12' W 096°08'0 0.0
2018-Jan-20 03:28N 19°12' W 096°08'0 0.0
2018-Jan-20 02:55N 19°12' W 096°08'0 0.6
2018-Jan-20 02:27N 19°12' W 096°08'2 3.2
2018-Jan-20 01:50N 19°12' W 096°06'2 5.0
2018-Jan-20 01:30N 19°12' W 096°07'0 0.7
2018-Jan-20 00:59N 19°12' W 096°08'0 0.0
2018-Jan-20 00:28N 19°12' W 096°08'0 0.0
2018-Jan-19 23:58N 19°12' W 096°08'0 0.0
2018-Jan-19 23:28N 19°12' W 096°08'0 0.0
2018-Jan-19 22:58N 19°12' W 096°08'0 0.0
2018-Jan-19 22:28N 19°12' W 096°08'0 0.0
2018-Jan-19 21:58N 19°12' W 096°08'0 0.0
2018-Jan-19 21:25N 19°12' W 096°08'0 0.0
2018-Jan-19 20:58N 19°12' W 096°08'0 0.7
2018-Jan-19 20:30N 19°12' W 096°08'1 2.7
2018-Jan-19 19:59N 19°12' W 096°06'2 4.6
2018-Jan-19 19:28N 19°11' W 096°04'4 8.3
2018-Jan-19 18:59N 19°12' W 096°08'0 0.0
2018-Jan-19 18:26N 19°12' W 096°08'0 0.4
2018-Jan-19 17:38N 19°12' W 096°08'0 0.0
2018-Jan-19 17:23N 19°12' W 096°08'3 8.8
2018-Jan-19 17:00N 19°11' W 096°04'2 4.1
2018-Jan-19 16:29N 19°12' W 096°07'1 2.2
2018-Jan-19 15:59N 19°12' W 096°08'0 0.0
2018-Jan-19 15:29N 19°12' W 096°08'0 0.0
2018-Jan-19 14:59N 19°12' W 096°08'0 0.4
2018-Jan-19 14:22N 19°12' W 096°08'0 0.0
2018-Jan-19 13:56N 19°12' W 096°08'0 0.5
2018-Jan-19 13:21N 19°12' W 096°08'0 0.0
2018-Jan-19 12:57N 19°12' W 096°08'0 0.0
2018-Jan-19 12:24N 19°12' W 096°08'0 0.1
2018-Jan-19 11:53N 19°12' W 096°08'2 3.1
2018-Jan-19 11:10N 19°12' W 096°05'2 8.5
2018-Jan-19 10:57N 19°12' W 096°07'0 0.9
2018-Jan-19 10:30N 19°12' W 096°08'1 1.1
2018-Jan-19 10:00N 19°12' W 096°07'1 1.1
2018-Jan-19 09:30N 19°12' W 096°08'0 0.0
2018-Jan-19 09:00N 19°12' W 096°08'0 0.0
2018-Jan-19 08:30N 19°12' W 096°08'0 0.0
2018-Jan-19 08:00N 19°12' W 096°08'0 0.0
2018-Jan-19 07:30N 19°12' W 096°08'0 0.0
2018-Jan-19 07:00N 19°12' W 096°08'0 0.0
2018-Jan-19 06:30N 19°12' W 096°08'0 0.0
2018-Jan-19 06:00N 19°12' W 096°08'0 0.0
2018-Jan-19 05:30N 19°12' W 096°08'0 0.0
2018-Jan-19 05:00N 19°12' W 096°08'0 0.0
2018-Jan-19 04:30N 19°12' W 096°08'0 0.0
2018-Jan-19 04:00N 19°12' W 096°08'0 0.7
2018-Jan-19 03:29N 19°12' W 096°08'1 0.7
2018-Jan-19 02:16N 19°12' W 096°07'1 2.0
2018-Jan-19 01:58N 19°12' W 096°08'0 0.0
2018-Jan-19 01:29N 19°12' W 096°08'0 0.0
2018-Jan-19 00:59N 19°12' W 096°08'0 0.0
2018-Jan-19 00:29N 19°12' W 096°08'0 0.0
2018-Jan-18 23:59N 19°12' W 096°08'0 0.0
2018-Jan-18 23:29N 19°12' W 096°08'0 0.0
2018-Jan-18 22:58N 19°12' W 096°08'0 0.0
2018-Jan-18 22:28N 19°12' W 096°08'0 0.0
2018-Jan-18 21:59N 19°12' W 096°08'0 0.0
2018-Jan-18 21:25N 19°12' W 096°08'0 0.0
2018-Jan-18 21:00N 19°12' W 096°08'0 0.0
2018-Jan-18 20:29N 19°12' W 096°08'1 1.4
2018-Jan-18 20:00N 19°12' W 096°07'3 6.1
2018-Jan-18 19:29N 19°12' W 096°04'3 5.6
2018-Jan-18 18:59N 19°12' W 096°07'1 2.0
2018-Jan-18 18:28N 19°12' W 096°08'0 0.0
2018-Jan-18 17:58N 19°12' W 096°08'0 0.0
2018-Jan-18 17:20N 19°12' W 096°08'2 6.6
2018-Jan-18 16:58N 19°12' W 096°05'2 5.4
2018-Jan-18 16:30N 19°12' W 096°08'0 0.5
2018-Jan-18 15:58N 19°12' W 096°08'0 0.0
2018-Jan-18 15:22N 19°12' W 096°08'0 0.7
2018-Jan-18 14:58N 19°12' W 096°08'0 0.0
2018-Jan-18 14:22N 19°12' W 096°08'0 0.0
2018-Jan-18 13:58N 19°12' W 096°08'  
2018-Jan-12 14:54N 19°12' W 096°08'0 0.0
2018-Jan-12 14:30N 19°12' W 096°08'0 0.0
2018-Jan-12 14:00N 19°12' W 096°08'0 0.0
2018-Jan-12 13:30N 19°12' W 096°08'0 0.0
2018-Jan-12 13:00N 19°12' W 096°08'0 0.0
2018-Jan-12 12:30N 19°12' W 096°08'0 0.0
2018-Jan-12 12:00N 19°12' W 096°08'0 0.0
2018-Jan-12 11:30N 19°12' W 096°08'0 0.0
2018-Jan-12 11:00N 19°12' W 096°08'0 0.0
2018-Jan-12 10:30N 19°12' W 096°08'0 0.0
2018-Jan-12 10:00N 19°12' W 096°08'0 0.0
2018-Jan-12 09:30N 19°12' W 096°08'0 0.0
2018-Jan-12 09:00N 19°12' W 096°08'0 0.0
2018-Jan-12 08:30N 19°12' W 096°08'0 0.0
2018-Jan-12 07:54N 19°12' W 096°08'0 0.0
2018-Jan-12 07:30N 19°12' W 096°08'0 0.0
2018-Jan-12 06:30N 19°12' W 096°08'0 0.0
2018-Jan-12 06:00N 19°12' W 096°08'0 0.0
2018-Jan-12 05:29N 19°12' W 096°08'0 0.5
2018-Jan-12 04:55N 19°12' W 096°08'0 0.5
2018-Jan-12 04:30N 19°12' W 096°08'0 0.4
2018-Jan-12 04:00N 19°12' W 096°08'1 0.7
2018-Jan-12 03:11N 19°12' W 096°07'1 3.2
2018-Jan-12 03:00N 19°12' W 096°08'0 0.0
2018-Jan-12 02:30N 19°12' W 096°08'0 0.0
2018-Jan-12 02:00N 19°12' W 096°08'0 0.0
2018-Jan-12 01:30N 19°12' W 096°08'0 0.0
2018-Jan-12 01:00N 19°12' W 096°08'0 0.0
2018-Jan-12 00:30N 19°12' W 096°08'0 0.0
2018-Jan-11 23:54N 19°12' W 096°08'0 0.0
2018-Jan-11 23:30N 19°12' W 096°08'0 0.0
2018-Jan-11 23:00N 19°12' W 096°08'0 0.0
2018-Jan-11 22:30N 19°12' W 096°08'0 0.0
2018-Jan-11 22:00N 19°12' W 096°08'0 0.0
2018-Jan-11 21:30N 19°12' W 096°08'0 0.0
2018-Jan-11 21:00N 19°12' W 096°08'0 0.0
2018-Jan-11 20:30N 19°12' W 096°08'0 0.0
2018-Jan-11 20:00N 19°12' W 096°08'0 0.0
2018-Jan-11 19:30N 19°12' W 096°08'0 0.0
2018-Jan-11 18:54N 19°12' W 096°08'0 0.0
2018-Jan-11 18:30N 19°12' W 096°08'0 0.0
2018-Jan-11 17:54N 19°12' W 096°08'0 0.0
2018-Jan-11 17:30N 19°12' W 096°08'0 0.0
2018-Jan-11 17:00N 19°12' W 096°08'  
Track history (hours):
 
Tides and Currents Weather Stations Pressure Air Temp Water Temp Dewpoint Dewpoint Depression Visibility Wind Speed Wind Dir Waves Ship Positions

Tom Car

Last reported at 2018-Jan-21 16:27 UTC. Time now 2018-Jan-21 16:37 UTC.
Position N 19°12' W 096°08'.

Length 10 m.

Type: Pilot. MMSI: 345030093.

Date/timePositionNaut miles runAvg speedWind from/ knotsBaromVisibWave heightAir tempDewpointWater temp
2018-Jan-21 16:27N 19°12' W 096°08'0 0.0
2018-Jan-21 16:00N 19°12' W 096°08'0 0.0
2018-Jan-21 15:27N 19°12' W 096°08'0 0.1
2018-Jan-21 15:00N 19°12' W 096°08'0 0.5
2018-Jan-21 14:28N 19°12' W 096°08'0 0.0
2018-Jan-21 13:58N 19°12' W 096°08'0 0.0
2018-Jan-21 13:28N 19°12' W 096°08'0 0.0
2018-Jan-21 12:58N 19°12' W 096°08'0 0.0
2018-Jan-21 12:28N 19°12' W 096°08'0 0.0
2018-Jan-21 11:58N 19°12' W 096°08'0 0.0
2018-Jan-21 11:28N 19°12' W 096°08'0 0.0
2018-Jan-21 10:58N 19°12' W 096°08'0 0.0
2018-Jan-21 10:28N 19°12' W 096°08'0 0.0
2018-Jan-21 09:55N 19°12' W 096°08'0 0.0
2018-Jan-21 09:28N 19°12' W 096°08'0 0.0
2018-Jan-21 08:55N 19°12' W 096°08'0 0.0
2018-Jan-21 08:28N 19°12' W 096°08'0 0.0
2018-Jan-21 07:58N 19°12' W 096°08'0 0.0
2018-Jan-21 07:28N 19°12' W 096°08'0 0.0
2018-Jan-21 06:58N 19°12' W 096°08'0 0.0
2018-Jan-21 06:28N 19°12' W 096°08'0 0.0
2018-Jan-21 05:58N 19°12' W 096°08'0 0.0
2018-Jan-21 05:28N 19°12' W 096°08'0 0.0
2018-Jan-21 04:58N 19°12' W 096°08'0 0.0
2018-Jan-21 04:28N 19°12' W 096°08'0 0.0
2018-Jan-21 03:58N 19°12' W 096°08'0 0.0
2018-Jan-21 03:28N 19°12' W 096°08'0 0.0
2018-Jan-21 02:58N 19°12' W 096°08'0 0.0
2018-Jan-21 02:28N 19°12' W 096°08'0 0.0
2018-Jan-21 01:58N 19°12' W 096°08'0 0.0
2018-Jan-21 01:28N 19°12' W 096°08'0 0.0
2018-Jan-21 00:58N 19°12' W 096°08'0 0.0
2018-Jan-21 00:28N 19°12' W 096°08'0 0.0
2018-Jan-20 23:58N 19°12' W 096°08'0 0.0
2018-Jan-20 23:28N 19°12' W 096°08'0 0.0
2018-Jan-20 22:55N 19°12' W 096°08'0 0.0
2018-Jan-20 22:28N 19°12' W 096°08'0 0.4
2018-Jan-20 22:00N 19°12' W 096°08'2 3.3
2018-Jan-20 21:30N 19°12' W 096°06'2 4.0
2018-Jan-20 21:00N 19°13' W 096°08'1 1.4
2018-Jan-20 20:29N 19°12' W 096°08'0 0.0
2018-Jan-20 19:59N 19°12' W 096°08'0 0.0
2018-Jan-20 19:29N 19°12' W 096°08'0 0.0
2018-Jan-20 18:59N 19°12' W 096°08'0 0.0
2018-Jan-20 18:29N 19°12' W 096°08'0 0.0
2018-Jan-20 17:59N 19°12' W 096°08'0 0.0
2018-Jan-20 17:26N 19°12' W 096°08'0 0.0
2018-Jan-20 16:59N 19°12' W 096°08'0 0.0
2018-Jan-20 16:30N 19°12' W 096°08'0 0.6
2018-Jan-20 16:00N 19°12' W 096°08'0 0.0
2018-Jan-20 15:30N 19°12' W 096°08'0 0.0
2018-Jan-20 15:00N 19°12' W 096°08'0 0.0
2018-Jan-20 14:27N 19°12' W 096°08'0 0.0
2018-Jan-20 13:54N 19°12' W 096°08'0 0.0
2018-Jan-20 04:07N 19°12' W 096°08'0 0.0
2018-Jan-20 03:58N 19°12' W 096°08'0 0.0
2018-Jan-20 03:28N 19°12' W 096°08'0 0.0
2018-Jan-20 02:55N 19°12' W 096°08'0 0.6
2018-Jan-20 02:27N 19°12' W 096°08'2 3.2
2018-Jan-20 01:50N 19°12' W 096°06'2 5.0
2018-Jan-20 01:30N 19°12' W 096°07'0 0.7
2018-Jan-20 00:59N 19°12' W 096°08'0 0.0
2018-Jan-20 00:28N 19°12' W 096°08'0 0.0
2018-Jan-19 23:58N 19°12' W 096°08'0 0.0
2018-Jan-19 23:28N 19°12' W 096°08'0 0.0
2018-Jan-19 22:58N 19°12' W 096°08'0 0.0
2018-Jan-19 22:28N 19°12' W 096°08'0 0.0
2018-Jan-19 21:58N 19°12' W 096°08'0 0.0
2018-Jan-19 21:25N 19°12' W 096°08'0 0.0
2018-Jan-19 20:58N 19°12' W 096°08'0 0.7
2018-Jan-19 20:30N 19°12' W 096°08'1 2.7
2018-Jan-19 19:59N 19°12' W 096°06'2 4.6
2018-Jan-19 19:28N 19°11' W 096°04'4 8.3
2018-Jan-19 18:59N 19°12' W 096°08'0 0.0
2018-Jan-19 18:26N 19°12' W 096°08'0 0.4
2018-Jan-19 17:38N 19°12' W 096°08'0 0.0
2018-Jan-19 17:23N 19°12' W 096°08'3 8.8
2018-Jan-19 17:00N 19°11' W 096°04'2 4.1
2018-Jan-19 16:29N 19°12' W 096°07'1 2.2
2018-Jan-19 15:59N 19°12' W 096°08'0 0.0
2018-Jan-19 15:29N 19°12' W 096°08'0 0.0
2018-Jan-19 14:59N 19°12' W 096°08'0 0.4
2018-Jan-19 14:22N 19°12' W 096°08'0 0.0
2018-Jan-19 13:56N 19°12' W 096°08'0 0.5
2018-Jan-19 13:21N 19°12' W 096°08'0 0.0
2018-Jan-19 12:57N 19°12' W 096°08'0 0.0
2018-Jan-19 12:24N 19°12' W 096°08'0 0.1
2018-Jan-19 11:53N 19°12' W 096°08'2 3.1
2018-Jan-19 11:10N 19°12' W 096°05'2 8.5
2018-Jan-19 10:57N 19°12' W 096°07'0 0.9
2018-Jan-19 10:30N 19°12' W 096°08'1 1.1
2018-Jan-19 10:00N 19°12' W 096°07'1 1.1
2018-Jan-19 09:30N 19°12' W 096°08'0 0.0
2018-Jan-19 09:00N 19°12' W 096°08'0 0.0
2018-Jan-19 08:30N 19°12' W 096°08'0 0.0
2018-Jan-19 08:00N 19°12' W 096°08'0 0.0
2018-Jan-19 07:30N 19°12' W 096°08'0 0.0
2018-Jan-19 07:00N 19°12' W 096°08'0 0.0
2018-Jan-19 06:30N 19°12' W 096°08'0 0.0
2018-Jan-19 06:00N 19°12' W 096°08'0 0.0
2018-Jan-19 05:30N 19°12' W 096°08'0 0.0
2018-Jan-19 05:00N 19°12' W 096°08'0 0.0
2018-Jan-19 04:30N 19°12' W 096°08'0 0.0
2018-Jan-19 04:00N 19°12' W 096°08'0 0.7
2018-Jan-19 03:29N 19°12' W 096°08'1 0.7
2018-Jan-19 02:16N 19°12' W 096°07'1 2.0
2018-Jan-19 01:58N 19°12' W 096°08'0 0.0
2018-Jan-19 01:29N 19°12' W 096°08'0 0.0
2018-Jan-19 00:59N 19°12' W 096°08'0 0.0
2018-Jan-19 00:29N 19°12' W 096°08'0 0.0
2018-Jan-18 23:59N 19°12' W 096°08'0 0.0
2018-Jan-18 23:29N 19°12' W 096°08'0 0.0
2018-Jan-18 22:58N 19°12' W 096°08'0 0.0
2018-Jan-18 22:28N 19°12' W 096°08'0 0.0
2018-Jan-18 21:59N 19°12' W 096°08'0 0.0
2018-Jan-18 21:25N 19°12' W 096°08'0 0.0
2018-Jan-18 21:00N 19°12' W 096°08'0 0.0
2018-Jan-18 20:29N 19°12' W 096°08'1 1.4
2018-Jan-18 20:00N 19°12' W 096°07'3 6.1
2018-Jan-18 19:29N 19°12' W 096°04'3 5.6
2018-Jan-18 18:59N 19°12' W 096°07'1 2.0
2018-Jan-18 18:28N 19°12' W 096°08'0 0.0
2018-Jan-18 17:58N 19°12' W 096°08'0 0.0
2018-Jan-18 17:20N 19°12' W 096°08'2 6.6
2018-Jan-18 16:58N 19°12' W 096°05'2 5.4
2018-Jan-18 16:30N 19°12' W 096°08'0 0.5
2018-Jan-18 15:58N 19°12' W 096°08'0 0.0
2018-Jan-18 15:22N 19°12' W 096°08'0 0.7
2018-Jan-18 14:58N 19°12' W 096°08'0 0.0
2018-Jan-18 14:22N 19°12' W 096°08'0 0.0
2018-Jan-18 13:58N 19°12' W 096°08'  
2018-Jan-12 14:54N 19°12' W 096°08'0 0.0
2018-Jan-12 14:30N 19°12' W 096°08'0 0.0
2018-Jan-12 14:00N 19°12' W 096°08'0 0.0
2018-Jan-12 13:30N 19°12' W 096°08'0 0.0
2018-Jan-12 13:00N 19°12' W 096°08'0 0.0
2018-Jan-12 12:30N 19°12' W 096°08'0 0.0
2018-Jan-12 12:00N 19°12' W 096°08'0 0.0
2018-Jan-12 11:30N 19°12' W 096°08'0 0.0
2018-Jan-12 11:00N 19°12' W 096°08'0 0.0
2018-Jan-12 10:30N 19°12' W 096°08'0 0.0
2018-Jan-12 10:00N 19°12' W 096°08'0 0.0
2018-Jan-12 09:30N 19°12' W 096°08'0 0.0
2018-Jan-12 09:00N 19°12' W 096°08'0 0.0
2018-Jan-12 08:30N 19°12' W 096°08'0 0.0
2018-Jan-12 07:54N 19°12' W 096°08'0 0.0
2018-Jan-12 07:30N 19°12' W 096°08'0 0.0
2018-Jan-12 06:30N 19°12' W 096°08'0 0.0
2018-Jan-12 06:00N 19°12' W 096°08'0 0.0
2018-Jan-12 05:29N 19°12' W 096°08'0 0.5
2018-Jan-12 04:55N 19°12' W 096°08'0 0.5
2018-Jan-12 04:30N 19°12' W 096°08'0 0.4
2018-Jan-12 04:00N 19°12' W 096°08'1 0.7
2018-Jan-12 03:11N 19°12' W 096°07'1 3.2
2018-Jan-12 03:00N 19°12' W 096°08'0 0.0
2018-Jan-12 02:30N 19°12' W 096°08'0 0.0
2018-Jan-12 02:00N 19°12' W 096°08'0 0.0
2018-Jan-12 01:30N 19°12' W 096°08'0 0.0
2018-Jan-12 01:00N 19°12' W 096°08'0 0.0
2018-Jan-12 00:30N 19°12' W 096°08'0 0.0
2018-Jan-11 23:54N 19°12' W 096°08'0 0.0
2018-Jan-11 23:30N 19°12' W 096°08'0 0.0
2018-Jan-11 23:00N 19°12' W 096°08'0 0.0
2018-Jan-11 22:30N 19°12' W 096°08'0 0.0
2018-Jan-11 22:00N 19°12' W 096°08'0 0.0
2018-Jan-11 21:30N 19°12' W 096°08'0 0.0
2018-Jan-11 21:00N 19°12' W 096°08'0 0.0
2018-Jan-11 20:30N 19°12' W 096°08'0 0.0
2018-Jan-11 20:00N 19°12' W 096°08'0 0.0
2018-Jan-11 19:30N 19°12' W 096°08'0 0.0
2018-Jan-11 18:54N 19°12' W 096°08'0 0.0
2018-Jan-11 18:30N 19°12' W 096°08'0 0.0
2018-Jan-11 17:54N 19°12' W 096°08'0 0.0
2018-Jan-11 17:30N 19°12' W 096°08'0 0.0
2018-Jan-11 17:00N 19°12' W 096°08'  

Dump ship's entire track history